LIEE/CAG METAR and TAF weather

Enter ICAO airport designator
Station Type Date Time Source
LIEE METAR 2019/12/14 11:20 UTC NOAA

LIEE 141120Z 33025KT 9999 FEW020 19/11 Q1011


Station Type Date Time Source
LIEE Decoded METAR 2019/12/14 11:20 UTC NOAA

Cagliari / Elmas, Italy (LIEE) 39-15N 009-04E 5M
Dec 14, 2019 - 06:20 AM EST / 2019.12.14 1120 UTC
Wind: from the NNW (330 degrees) at 29 MPH (25 KT):0
Visibility: greater than 7 mile(s):0
Sky conditions: mostly clear
Temperature: 66 F (19 C)
Dew Point: 51 F (11 C)
Relative Humidity: 59%
Pressure (altimeter): 29.85 in. Hg (1011 hPa)
ob: LIEE 141120Z 33025KT 9999 FEW020 19/11 Q1011
cycle: 11

Station Type Date Time Source
LIEE TAF 2019/12/14 12:21 UTC NOAA

TAF LIEE 141100Z 1412/1512 32015KT 9999 SCT030
BECMG 1502/1504 VRB05KT

Example: see airport list